createdAt,value
2023-02-12T00:00:38.136Z,19.17
2023-02-12T00:02:48.152Z,18.48
2023-02-12T00:04:52.871Z,16.38
2023-02-12T00:06:58.035Z,16.70
2023-02-12T00:09:03.558Z,16.42
2023-02-12T00:11:13.659Z,17.65
2023-02-12T00:13:21.136Z,21.63
2023-02-12T00:15:26.895Z,18.10
2023-02-12T00:17:32.093Z,21.67
2023-02-12T00:19:40.048Z,20.33
2023-02-12T00:21:46.595Z,20.90
2023-02-12T00:23:54.169Z,18.92
2023-02-12T00:25:59.005Z,17.48
2023-02-12T00:28:04.007Z,19.52
2023-02-12T00:30:10.470Z,17.88
2023-02-12T00:32:19.697Z,15.27
2023-02-12T00:34:25.290Z,17.73
2023-02-12T00:36:34.828Z,15.32
2023-02-12T00:38:40.010Z,17.83
2023-02-12T00:40:47.944Z,17.35
2023-02-12T00:42:53.901Z,22.08
2023-02-12T00:44:58.926Z,24.65
2023-02-12T00:47:04.068Z,17.42
2023-02-12T00:49:12.121Z,17.90
2023-02-12T00:51:17.700Z,17.10
2023-02-12T00:53:26.052Z,18.23
2023-02-12T00:55:33.525Z,20.92
2023-02-12T00:57:39.945Z,21.92
2023-02-12T00:59:48.250Z,18.73
2023-02-12T01:01:53.326Z,19.08
2023-02-12T01:03:59.472Z,15.10
2023-02-12T01:06:04.509Z,15.23
2023-02-12T01:08:10.176Z,16.75
2023-02-12T01:10:17.727Z,18.17
2023-02-12T01:12:22.637Z,15.38
2023-02-12T01:14:28.007Z,16.17
2023-02-12T01:16:36.570Z,16.88
2023-02-12T01:18:42.703Z,15.77
2023-02-12T01:20:47.781Z,16.30
2023-02-12T01:22:53.183Z,15.65
2023-02-12T01:25:00.743Z,16.05
2023-02-12T01:27:08.264Z,16.52
2023-02-12T01:29:13.671Z,14.80
2023-02-12T01:31:22.048Z,13.65
2023-02-12T01:33:27.417Z,15.82
2023-02-12T01:35:32.496Z,14.45
2023-02-12T01:37:39.415Z,15.68
2023-02-12T01:39:46.855Z,17.02
2023-02-12T01:41:51.903Z,16.75
2023-02-12T01:44:18.495Z,15.43
2023-02-12T01:46:23.530Z,17.88
2023-02-12T01:48:31.945Z,19.75
2023-02-12T01:50:37.397Z,17.77
2023-02-12T01:52:48.741Z,14.45
2023-02-12T01:54:57.267Z,14.65
2023-02-12T01:57:03.731Z,17.42
2023-02-12T01:59:14.190Z,13.77
2023-02-12T02:01:24.812Z,13.38
2023-02-12T02:03:30.969Z,13.27
2023-02-12T02:05:46.100Z,12.93
2023-02-12T02:07:51.720Z,12.23
2023-02-12T02:09:58.001Z,12.80
2023-02-12T02:12:30.184Z,13.63
2023-02-12T02:14:37.731Z,13.82
2023-02-12T02:16:46.661Z,15.18
2023-02-12T02:18:58.880Z,12.45
2023-02-12T02:21:22.827Z,12.27
2023-02-12T02:24:03.717Z,13.60
2023-02-12T02:26:31.363Z,12.98
2023-02-12T02:28:56.381Z,12.25
2023-02-12T02:31:11.419Z,13.75
2023-02-12T02:33:39.204Z,17.17
2023-02-12T02:35:57.995Z,14.63
2023-02-12T02:38:21.270Z,12.65
2023-02-12T02:40:28.706Z,12.95
2023-02-12T02:42:40.006Z,13.52
2023-02-12T02:44:51.439Z,17.85
2023-02-12T02:47:01.593Z,18.23
2023-02-12T02:49:09.292Z,14.80
2023-02-12T02:51:23.212Z,14.73
2023-02-12T02:53:32.911Z,14.70
2023-02-12T02:55:51.955Z,13.35
2023-02-12T02:58:00.789Z,14.27
2023-02-12T03:00:16.213Z,17.98
2023-02-12T03:02:28.311Z,14.60
2023-02-12T03:04:37.655Z,12.38
2023-02-12T03:06:49.474Z,13.57
2023-02-12T03:09:01.088Z,18.13
2023-02-12T03:11:13.098Z,14.63
2023-02-12T03:13:23.318Z,15.40
2023-02-12T03:15:35.160Z,18.05
2023-02-12T03:17:48.177Z,23.15
2023-02-12T03:19:59.224Z,17.92
2023-02-12T03:22:07.718Z,20.00
2023-02-12T03:24:17.565Z,18.42
2023-02-12T03:26:28.627Z,18.27
2023-02-12T03:28:36.694Z,17.65
2023-02-12T03:30:48.923Z,19.02
2023-02-12T03:33:04.972Z,21.35
2023-02-12T03:35:16.707Z,16.65
2023-02-12T03:37:25.226Z,16.02
2023-02-12T03:39:33.759Z,12.98
2023-02-12T03:41:46.679Z,12.85
2023-02-12T03:43:55.584Z,13.18
2023-02-12T03:46:09.688Z,12.40
2023-02-12T03:48:24.953Z,10.65
2023-02-12T03:50:39.389Z,11.95
2023-02-12T03:52:45.333Z,12.00
2023-02-12T03:54:50.853Z,11.95
2023-02-12T03:57:01.827Z,11.73
2023-02-12T03:59:07.735Z,11.25
2023-02-12T04:01:13.298Z,13.63
2023-02-12T04:03:21.120Z,12.48
2023-02-12T04:05:28.859Z,15.98
2023-02-12T04:07:33.867Z,18.95
2023-02-12T04:09:41.871Z,15.90
2023-02-12T04:11:58.504Z,14.35
2023-02-12T04:14:17.047Z,13.45
2023-02-12T04:16:30.732Z,14.85
2023-02-12T04:18:47.535Z,14.68
2023-02-12T04:21:01.564Z,12.95
2023-02-12T04:23:16.590Z,14.35
2023-02-12T04:25:38.390Z,14.93
2023-02-12T04:27:51.876Z,15.65
2023-02-12T04:30:01.364Z,12.48
2023-02-12T04:32:15.251Z,13.77
2023-02-12T04:34:34.270Z,13.27
2023-02-12T04:36:46.172Z,12.75
2023-02-12T04:38:56.912Z,12.63
2023-02-12T04:41:03.752Z,15.20
2023-02-12T04:43:09.456Z,14.88
2023-02-12T04:45:16.128Z,12.75
2023-02-12T04:47:23.847Z,18.40
2023-02-12T04:49:32.327Z,14.48
2023-02-12T04:51:37.373Z,13.07
2023-02-12T04:53:42.249Z,12.25
2023-02-12T04:55:47.916Z,15.95
2023-02-12T04:57:52.802Z,14.93
2023-02-12T04:59:57.877Z,14.60
2023-02-12T05:02:02.958Z,14.57
2023-02-12T05:04:09.901Z,13.43
2023-02-12T05:06:17.500Z,12.30
2023-02-12T05:08:22.617Z,14.25
2023-02-12T05:10:27.516Z,11.18
2023-02-12T05:12:32.890Z,13.38
2023-02-12T05:14:37.944Z,12.98
2023-02-12T05:16:43.028Z,12.18
2023-02-12T05:18:48.255Z,12.93
2023-02-12T05:20:58.960Z,13.35
2023-02-12T05:23:06.858Z,12.10
2023-02-12T05:25:11.988Z,13.68
2023-02-12T05:27:16.936Z,13.85
2023-02-12T05:29:22.111Z,13.00
2023-02-12T05:31:27.264Z,18.85
2023-02-12T05:33:32.580Z,14.70
2023-02-12T05:35:38.083Z,12.32
2023-02-12T05:37:42.990Z,15.23
2023-02-12T05:39:55.352Z,13.65
2023-02-12T05:42:00.492Z,13.82
2023-02-12T05:44:07.220Z,12.52
2023-02-12T05:46:12.983Z,13.05
2023-02-12T05:48:18.211Z,14.60
2023-02-12T05:50:23.339Z,13.40
2023-02-12T05:52:28.306Z,15.73
2023-02-12T05:54:33.512Z,14.05
2023-02-12T05:56:45.293Z,14.57
2023-02-12T05:58:52.309Z,14.57
2023-02-12T06:00:59.618Z,15.45
2023-02-12T06:03:06.223Z,13.45
2023-02-12T06:05:11.433Z,18.63
2023-02-12T06:07:16.418Z,16.10
2023-02-12T06:09:21.286Z,18.63
2023-02-12T06:11:26.564Z,20.70
2023-02-12T06:13:37.282Z,20.50
2023-02-12T06:15:42.209Z,21.58
2023-02-12T06:17:46.933Z,20.38
2023-02-12T06:19:51.913Z,19.35
2023-02-12T06:21:57.013Z,20.58
2023-02-12T06:24:02.931Z,24.83
2023-02-12T06:26:07.980Z,19.20
2023-02-12T06:28:12.812Z,21.65
2023-02-12T06:30:20.726Z,20.42
2023-02-12T06:32:25.767Z,23.80
2023-02-12T06:34:30.678Z,22.30
2023-02-12T06:36:36.409Z,23.17
2023-02-12T06:38:41.270Z,22.20
2023-02-12T06:40:48.886Z,21.73
2023-02-12T06:42:53.570Z,21.83
2023-02-12T06:44:59.401Z,27.15
2023-02-12T06:47:07.166Z,25.08
2023-02-12T06:49:16.857Z,26.00
2023-02-12T06:51:23.588Z,24.63
2023-02-12T06:53:28.896Z,24.92
2023-02-12T06:55:34.314Z,23.98
2023-02-12T06:57:40.033Z,26.75
2023-02-12T06:59:45.103Z,21.10
2023-02-12T07:01:50.068Z,25.92
2023-02-12T07:03:59.560Z,26.70
2023-02-12T07:06:06.695Z,26.15
2023-02-12T07:08:11.892Z,20.95
2023-02-12T07:10:16.710Z,26.05
2023-02-12T07:12:21.539Z,18.98
2023-02-12T07:14:26.843Z,20.55
2023-02-12T07:16:32.435Z,23.60
2023-02-12T07:18:37.848Z,22.67
2023-02-12T07:20:45.414Z,21.33
2023-02-12T07:22:52.714Z,21.60
2023-02-12T07:24:57.657Z,19.40
2023-02-12T07:27:02.944Z,19.05
2023-02-12T07:29:08.410Z,19.08
2023-02-12T07:31:15.411Z,19.15
2023-02-12T07:33:20.927Z,17.63
2023-02-12T07:35:25.861Z,17.75
2023-02-12T07:37:37.289Z,19.83
2023-02-12T07:39:42.205Z,18.50
2023-02-12T07:41:47.102Z,17.02
2023-02-12T07:43:56.730Z,17.55
2023-02-12T07:46:09.545Z,16.48
2023-02-12T07:48:14.618Z,18.33
2023-02-12T07:50:19.918Z,22.10
2023-02-12T07:52:24.843Z,18.90
2023-02-12T07:54:32.532Z,20.42
2023-02-12T07:56:42.069Z,16.25
2023-02-12T07:58:51.420Z,19.77
2023-02-12T08:00:56.555Z,16.77
2023-02-12T08:03:01.472Z,21.40
2023-02-12T08:05:06.358Z,20.92
2023-02-12T08:07:11.452Z,20.42
2023-02-12T08:09:19.167Z,22.25
2023-02-12T08:11:27.582Z,18.40
2023-02-12T08:13:32.508Z,21.17
2023-02-12T08:15:37.632Z,18.65
2023-02-12T08:17:43.709Z,19.27
2023-02-12T08:19:51.405Z,20.00
2023-02-12T08:21:58.032Z,17.77
2023-02-12T08:24:03.819Z,17.52
2023-02-12T08:26:14.293Z,19.83
2023-02-12T08:28:23.388Z,21.13
2023-02-12T08:30:28.425Z,23.23
2023-02-12T08:32:33.964Z,19.38
2023-02-12T08:34:41.326Z,18.23
2023-02-12T08:36:46.587Z,19.58
2023-02-12T08:38:52.037Z,18.13
2023-02-12T08:40:59.012Z,18.10
2023-02-12T08:43:03.962Z,18.67
2023-02-12T08:45:12.916Z,15.88
2023-02-12T08:47:17.839Z,18.40
2023-02-12T08:49:25.399Z,15.25
2023-02-12T08:51:33.150Z,16.63
2023-02-12T08:53:38.214Z,15.45
2023-02-12T08:55:43.120Z,17.42
2023-02-12T08:57:48.043Z,23.20
2023-02-12T08:59:52.860Z,21.83
2023-02-12T09:02:01.045Z,18.67
2023-02-12T09:04:06.198Z,19.45
2023-02-12T09:06:12.262Z,18.42
2023-02-12T09:08:17.016Z,17.52
2023-02-12T09:10:22.226Z,17.52
2023-02-12T09:12:27.055Z,19.40
2023-02-12T09:14:32.191Z,17.02
2023-02-12T09:16:40.062Z,19.38
2023-02-12T09:18:50.139Z,18.92
2023-02-12T09:20:57.491Z,21.50
2023-02-12T09:23:02.536Z,18.08
2023-02-12T09:25:08.206Z,16.90
2023-02-12T09:27:13.115Z,20.58
2023-02-12T09:29:17.985Z,16.45
2023-02-12T09:31:26.748Z,19.13
2023-02-12T09:33:31.756Z,16.75
2023-02-12T09:35:41.275Z,19.05
2023-02-12T09:37:46.694Z,20.95
2023-02-12T09:39:51.722Z,19.60
2023-02-12T09:42:23.136Z,19.38
2023-02-12T09:44:36.107Z,21.92
2023-02-12T09:46:52.875Z,17.45
2023-02-12T09:49:08.746Z,19.67
2023-02-12T09:51:17.138Z,17.80
2023-02-12T09:53:24.446Z,18.20
2023-02-12T09:55:32.981Z,21.30
2023-02-12T09:57:40.583Z,19.05
2023-02-12T09:59:50.851Z,20.83
2023-02-12T10:01:55.713Z,19.20
2023-02-12T10:04:04.201Z,19.38
2023-02-12T10:06:16.782Z,17.90
2023-02-12T10:08:43.922Z,16.25
2023-02-12T10:10:54.719Z,23.08
2023-02-12T10:13:03.057Z,20.88
2023-02-12T10:15:24.011Z,18.60
2023-02-12T10:17:43.328Z,19.58
2023-02-12T10:20:11.145Z,21.42
2023-02-12T10:22:27.204Z,19.65
2023-02-12T10:25:02.422Z,25.17
2023-02-12T10:27:15.161Z,17.17
2023-02-12T10:29:23.344Z,18.60
2023-02-12T10:31:33.317Z,20.27
2023-02-12T10:33:40.701Z,22.48
2023-02-12T10:35:50.625Z,21.25
2023-02-12T10:38:00.598Z,18.85
2023-02-12T10:40:19.620Z,18.08
2023-02-12T10:42:38.690Z,18.58
2023-02-12T10:44:43.613Z,17.92
2023-02-12T10:46:49.905Z,20.38
2023-02-12T10:48:59.030Z,17.33
2023-02-12T10:51:26.350Z,19.77
2023-02-12T10:53:36.494Z,18.95
2023-02-12T10:55:44.339Z,19.83
2023-02-12T10:57:50.842Z,21.98
2023-02-12T10:59:58.971Z,22.73
2023-02-12T11:02:04.071Z,19.58
2023-02-12T11:04:27.576Z,18.90
2023-02-12T11:08:41.862Z,17.52
2023-02-12T11:10:49.875Z,19.30
2023-02-12T11:12:54.893Z,21.95
2023-02-12T11:15:04.915Z,23.42
2023-02-12T11:17:09.916Z,21.80
2023-02-12T11:19:24.577Z,21.23
2023-02-12T11:21:29.844Z,20.15
2023-02-12T11:23:37.296Z,20.23
2023-02-12T11:25:57.381Z,18.23
2023-02-12T11:28:11.649Z,18.27
2023-02-12T11:30:24.783Z,17.40
2023-02-12T11:32:30.024Z,17.65
2023-02-12T11:34:35.113Z,16.98
2023-02-12T11:36:44.042Z,16.63
2023-02-12T11:38:54.789Z,19.70
2023-02-12T11:41:07.143Z,16.77
2023-02-12T11:43:21.212Z,19.02
2023-02-12T11:45:33.141Z,22.48
2023-02-12T11:47:44.531Z,19.27
2023-02-12T11:49:56.879Z,17.73
2023-02-12T11:52:07.155Z,19.38
2023-02-12T11:54:23.768Z,19.38
2023-02-12T11:56:50.884Z,21.88
2023-02-12T11:59:31.949Z,26.83
2023-02-12T12:01:42.070Z,19.08
2023-02-12T12:03:56.015Z,20.42
2023-02-12T12:06:08.049Z,17.48
2023-02-12T12:08:20.810Z,18.90
2023-02-12T12:10:38.133Z,16.13
2023-02-12T12:12:48.864Z,17.92
2023-02-12T12:15:12.416Z,14.63
2023-02-12T12:17:32.532Z,16.92
2023-02-12T12:19:56.824Z,17.58
2023-02-12T12:22:07.376Z,15.98
2023-02-12T12:24:16.779Z,13.48
2023-02-12T12:26:27.949Z,13.98
2023-02-12T12:28:39.282Z,13.50
2023-02-12T12:31:05.084Z,17.20
2023-02-12T12:33:20.276Z,17.75
2023-02-12T12:35:39.343Z,14.98
2023-02-12T12:37:55.949Z,13.65
2023-02-12T12:40:15.168Z,14.00
2023-02-12T12:42:51.806Z,14.75
2023-02-12T12:45:18.887Z,16.55
2023-02-12T12:47:39.804Z,17.10
2023-02-12T12:50:08.011Z,17.10
2023-02-12T12:52:51.553Z,14.63
2023-02-12T12:55:07.077Z,16.80
2023-02-12T12:57:26.144Z,14.52
2023-02-12T13:00:00.772Z,16.77
2023-02-12T13:02:44.248Z,14.43
2023-02-12T13:05:21.442Z,15.77
2023-02-12T13:07:47.766Z,15.00
2023-02-12T13:10:10.015Z,21.88
2023-02-12T13:12:36.725Z,17.17
2023-02-12T13:14:51.162Z,17.58
2023-02-12T13:17:04.306Z,17.27
2023-02-12T13:21:42.003Z,18.80
2023-02-12T13:23:55.561Z,17.50
2023-02-12T13:26:08.536Z,19.20
2023-02-12T13:28:19.786Z,17.00
2023-02-12T13:30:28.181Z,18.40
2023-02-12T13:32:37.706Z,24.10
2023-02-12T13:34:48.364Z,20.80
2023-02-12T13:37:01.405Z,21.10
2023-02-12T13:41:16.460Z,17.90
2023-02-12T13:43:39.392Z,21.75
2023-02-12T13:45:53.748Z,23.98
2023-02-12T13:48:19.882Z,21.50
2023-02-12T13:50:38.327Z,17.75
2023-02-12T13:52:53.912Z,22.38
2023-02-12T13:55:18.120Z,19.38
2023-02-12T13:57:24.754Z,19.27
2023-02-12T13:59:50.841Z,19.17
2023-02-12T14:01:56.869Z,17.23
2023-02-12T14:04:18.250Z,20.13
2023-02-12T14:06:25.370Z,18.75
2023-02-12T14:08:40.260Z,18.42
2023-02-12T14:10:45.555Z,22.63
2023-02-12T14:12:54.161Z,20.20
2023-02-12T14:15:09.961Z,28.60
2023-02-12T14:17:55.949Z,15.65
2023-02-12T14:20:25.129Z,20.17
2023-02-12T14:23:17.528Z,17.85
2023-02-12T14:25:44.232Z,18.10
2023-02-12T14:27:54.105Z,20.00
2023-02-12T14:30:30.007Z,25.38
2023-02-12T14:33:22.248Z,21.05
2023-02-12T14:35:41.990Z,22.17
2023-02-12T14:37:47.153Z,23.05
2023-02-12T14:39:52.196Z,22.77
2023-02-12T14:42:37.316Z,23.05
2023-02-12T14:44:52.255Z,21.83
2023-02-12T14:47:02.907Z,23.27
2023-02-12T14:49:08.774Z,24.48
2023-02-12T14:51:21.388Z,25.15
2023-02-12T14:53:32.874Z,20.85
2023-02-12T14:55:43.766Z,23.30
2023-02-12T14:57:52.315Z,20.85
2023-02-12T15:00:04.484Z,20.45
2023-02-12T15:02:16.852Z,22.60
2023-02-12T15:04:28.427Z,19.27
2023-02-12T15:06:44.717Z,25.63
2023-02-12T15:08:57.408Z,21.75
2023-02-12T15:11:12.369Z,23.48
2023-02-12T15:13:29.712Z,22.13
2023-02-12T15:15:45.932Z,26.35
2023-02-12T15:18:01.153Z,27.35
2023-02-12T15:20:11.341Z,25.08
2023-02-12T15:22:24.500Z,26.33
2023-02-12T15:24:30.939Z,27.20
2023-02-12T15:26:41.422Z,28.38
2023-02-12T15:28:50.927Z,29.38
2023-02-12T15:31:00.418Z,31.80
2023-02-12T15:33:08.005Z,28.08
2023-02-12T15:35:26.796Z,31.08
2023-02-12T15:37:36.962Z,31.58
2023-02-12T15:39:47.025Z,27.30
2023-02-12T15:41:53.076Z,31.75
2023-02-12T15:44:01.517Z,30.88
2023-02-12T15:46:18.282Z,32.15
2023-02-12T15:48:25.813Z,33.13
2023-02-12T15:50:32.965Z,35.97
2023-02-12T15:52:42.674Z,35.13
2023-02-12T15:54:52.620Z,30.70
2023-02-12T15:56:58.815Z,36.25
2023-02-12T15:59:05.398Z,36.72
2023-02-12T16:01:22.509Z,31.08
2023-02-12T16:03:30.673Z,37.65
2023-02-12T16:05:36.553Z,33.90
2023-02-12T16:07:41.793Z,35.28
2023-02-12T16:09:47.877Z,32.35
2023-02-12T16:11:54.615Z,33.70
2023-02-12T16:14:03.974Z,33.92
2023-02-12T16:16:22.338Z,34.72
2023-02-12T16:18:29.228Z,31.83
2023-02-12T16:20:38.205Z,31.45
2023-02-12T16:22:48.149Z,29.77
2023-02-12T16:24:56.768Z,27.33
2023-02-12T16:27:10.826Z,35.70
2023-02-12T16:29:20.831Z,30.20
2023-02-12T16:31:30.981Z,30.23
2023-02-12T16:33:38.983Z,32.20
2023-02-12T16:35:43.953Z,31.80
2023-02-12T16:37:51.682Z,42.58
2023-02-12T16:40:22.745Z,44.38
2023-02-12T16:42:30.563Z,39.55
2023-02-12T16:44:37.557Z,36.35
2023-02-12T16:46:55.738Z,37.15
2023-02-12T16:49:03.880Z,30.58
2023-02-12T16:51:09.424Z,34.58
2023-02-12T16:53:28.818Z,35.13
2023-02-12T16:55:34.610Z,35.28
2023-02-12T16:57:39.936Z,34.05
2023-02-12T16:59:45.566Z,31.60
2023-02-12T17:02:04.306Z,32.65
2023-02-12T17:04:18.247Z,33.03
2023-02-12T17:06:24.826Z,36.33
2023-02-12T17:08:29.846Z,35.47
2023-02-12T17:10:35.180Z,32.95
2023-02-12T17:12:50.807Z,29.80
2023-02-12T17:14:59.481Z,30.92
2023-02-12T17:17:07.217Z,38.03
2023-02-12T17:19:12.127Z,36.53
2023-02-12T17:21:29.207Z,38.05
2023-02-12T17:23:35.380Z,34.30
2023-02-12T17:25:40.618Z,34.03
2023-02-12T17:27:48.621Z,33.10
2023-02-12T17:29:53.680Z,33.58
2023-02-12T17:31:59.938Z,33.80
2023-02-12T17:34:08.627Z,26.77
2023-02-12T17:36:15.206Z,28.80
2023-02-12T17:38:20.271Z,32.78
2023-02-12T17:40:25.349Z,35.25
2023-02-12T17:42:31.310Z,36.90
2023-02-12T17:44:40.178Z,31.17
2023-02-12T17:46:47.035Z,35.58
2023-02-12T17:48:51.868Z,32.17
2023-02-12T17:51:01.256Z,35.13
2023-02-12T17:53:06.779Z,45.17
2023-02-12T17:55:14.054Z,35.90
2023-02-12T17:57:21.695Z,39.58
2023-02-12T17:59:26.623Z,35.03
2023-02-12T18:01:31.677Z,41.67
2023-02-12T18:03:36.901Z,38.95
2023-02-12T18:05:45.342Z,39.00
2023-02-12T18:07:53.122Z,36.97
2023-02-12T18:09:57.937Z,36.10
2023-02-12T18:12:02.755Z,38.08
2023-02-12T18:14:08.009Z,34.25
2023-02-12T18:16:17.937Z,37.90
2023-02-12T18:18:22.791Z,45.25
2023-02-12T18:20:27.718Z,39.35
2023-02-12T18:22:32.858Z,72.68
2023-02-12T18:24:41.489Z,57.42
2023-02-12T18:26:46.730Z,53.63
2023-02-12T18:28:54.011Z,34.63
2023-02-12T18:31:01.415Z,238.75
2023-02-12T18:33:07.048Z,120.55
2023-02-12T18:35:12.459Z,51.75
2023-02-12T18:37:17.719Z,47.28
2023-02-12T18:39:22.664Z,48.80
2023-02-12T18:41:33.072Z,49.95
2023-02-12T18:43:38.678Z,50.05
2023-02-12T18:45:46.898Z,61.17
2023-02-12T18:47:52.006Z,49.58
2023-02-12T18:49:58.185Z,53.05
2023-02-12T18:52:03.111Z,59.92
2023-02-12T18:54:15.166Z,46.25
2023-02-12T18:56:20.325Z,48.15
2023-02-12T18:58:27.917Z,47.08
2023-02-12T19:00:33.023Z,45.25
2023-02-12T19:02:38.449Z,42.03
2023-02-12T19:04:43.447Z,42.17
2023-02-12T19:06:50.577Z,47.83
2023-02-12T19:08:57.957Z,43.15
2023-02-12T19:11:02.856Z,76.55
2023-02-12T19:13:07.821Z,66.22
2023-02-12T19:15:15.588Z,41.25
2023-02-12T19:17:20.537Z,37.47
2023-02-12T19:19:25.975Z,57.10
2023-02-12T19:21:31.359Z,61.90
2023-02-12T19:23:36.859Z,39.70
2023-02-12T19:25:44.615Z,43.08
2023-02-12T19:27:49.959Z,71.57
2023-02-12T19:29:54.829Z,61.22
2023-02-12T19:32:03.666Z,60.78
2023-02-12T19:34:16.573Z,45.00
2023-02-12T19:36:23.048Z,43.33
2023-02-12T19:38:28.474Z,39.58
2023-02-12T19:40:34.189Z,53.80
2023-02-12T19:42:40.082Z,49.25
2023-02-12T19:44:46.800Z,74.78
2023-02-12T19:46:53.126Z,39.10
2023-02-12T19:49:03.373Z,47.72
2023-02-12T19:51:10.335Z,128.15
2023-02-12T19:53:15.427Z,85.18
2023-02-12T19:55:20.621Z,67.60
2023-02-12T19:57:25.559Z,166.30
2023-02-12T19:59:30.471Z,217.48
2023-02-12T20:01:36.371Z,86.30
2023-02-12T20:03:42.405Z,62.67
2023-02-12T20:05:53.195Z,73.43
2023-02-12T20:07:58.292Z,77.68
2023-02-12T20:10:06.603Z,133.82
2023-02-12T20:12:11.682Z,110.38
2023-02-12T20:14:21.100Z,67.10
2023-02-12T20:16:31.367Z,68.07
2023-02-12T20:18:37.313Z,43.55
2023-02-12T20:20:42.957Z,44.85
2023-02-12T20:22:53.793Z,41.80
2023-02-12T20:24:59.191Z,42.20
2023-02-12T20:27:07.017Z,40.72
2023-02-12T20:29:12.411Z,39.15
2023-02-12T20:31:19.675Z,38.88
2023-02-12T20:33:24.717Z,37.08
2023-02-12T20:35:29.859Z,38.85
2023-02-12T20:37:38.673Z,40.67
2023-02-12T20:39:46.855Z,37.47
2023-02-12T20:41:52.522Z,38.40
2023-02-12T20:43:58.136Z,34.50
2023-02-12T20:46:08.736Z,36.10
2023-02-12T20:48:13.583Z,43.33
2023-02-12T20:50:20.872Z,37.20
2023-02-12T20:52:27.259Z,37.85
2023-02-12T20:54:32.214Z,33.00
2023-02-12T20:56:44.641Z,38.25
2023-02-12T20:58:50.765Z,38.08
2023-02-12T21:00:56.187Z,40.33
2023-02-12T21:03:04.096Z,38.08
2023-02-12T21:05:12.481Z,38.97
2023-02-12T21:07:18.555Z,36.75
2023-02-12T21:09:23.824Z,36.03
2023-02-12T21:11:30.813Z,40.53
2023-02-12T21:13:39.915Z,37.40
2023-02-12T21:15:45.186Z,39.83
2023-02-12T21:17:50.493Z,42.00
2023-02-12T21:19:55.621Z,41.80
2023-02-12T21:22:00.736Z,38.38
2023-02-12T21:24:11.219Z,44.03
2023-02-12T21:26:18.709Z,40.50
2023-02-12T21:28:26.693Z,39.28
2023-02-12T21:30:36.753Z,40.75
2023-02-12T21:32:41.811Z,44.78
2023-02-12T21:34:48.653Z,42.25
2023-02-12T21:36:58.953Z,44.03
2023-02-12T21:39:04.219Z,39.58
2023-02-12T21:41:11.783Z,42.78
2023-02-12T21:43:16.876Z,42.55
2023-02-12T21:45:21.924Z,46.10
2023-02-12T21:47:29.821Z,45.53
2023-02-12T21:49:35.170Z,47.35
2023-02-12T21:51:42.994Z,45.88
2023-02-12T21:53:48.207Z,41.67
2023-02-12T21:55:53.224Z,41.60
2023-02-12T21:57:58.158Z,44.17
2023-02-12T22:00:06.843Z,45.45
2023-02-12T22:02:13.581Z,46.30
2023-02-12T22:04:22.040Z,38.70
2023-02-12T22:06:27.645Z,43.90
2023-02-12T22:08:33.159Z,45.70
2023-02-12T22:10:40.285Z,45.67
2023-02-12T22:12:45.476Z,44.67
2023-02-12T22:14:53.215Z,43.65
2023-02-12T22:16:58.116Z,44.40
2023-02-12T22:19:04.634Z,43.63
2023-02-12T22:21:14.799Z,45.30
2023-02-12T22:23:19.672Z,40.50
2023-02-12T22:25:24.711Z,41.30
2023-02-12T22:27:29.659Z,43.33
2023-02-12T22:29:34.574Z,45.67
2023-02-12T22:31:42.477Z,43.17
2023-02-12T22:33:48.799Z,44.15
2023-02-12T22:35:53.793Z,40.78
2023-02-12T22:38:05.334Z,42.45
2023-02-12T22:40:12.541Z,46.60
2023-02-12T22:42:18.698Z,43.40
2023-02-12T22:44:23.583Z,41.03
2023-02-12T22:46:28.865Z,44.25
2023-02-12T22:48:33.724Z,42.75
2023-02-12T22:50:41.335Z,41.53
2023-02-12T22:52:47.588Z,43.65
2023-02-12T22:54:55.514Z,44.88
2023-02-12T22:57:00.572Z,40.80
2023-02-12T22:59:05.594Z,42.25
2023-02-12T23:01:11.757Z,45.83
2023-02-12T23:03:17.612Z,44.75
2023-02-12T23:05:22.696Z,45.13
2023-02-12T23:07:27.750Z,42.35
2023-02-12T23:09:33.051Z,40.42
2023-02-12T23:11:40.530Z,41.40
2023-02-12T23:13:48.783Z,43.08
2023-02-12T23:15:57.578Z,36.80
2023-02-12T23:18:02.479Z,42.40
2023-02-12T23:20:08.277Z,37.60
2023-02-12T23:22:13.286Z,43.25
2023-02-12T23:24:18.352Z,39.30
2023-02-12T23:26:25.537Z,39.65
2023-02-12T23:28:33.493Z,42.05
2023-02-12T23:30:39.376Z,44.95
2023-02-12T23:32:48.270Z,41.75
2023-02-12T23:35:02.543Z,42.38
2023-02-12T23:37:07.755Z,42.05
2023-02-12T23:39:15.190Z,40.78
2023-02-12T23:41:20.228Z,45.45
2023-02-12T23:43:25.310Z,41.00
2023-02-12T23:45:32.957Z,45.25
2023-02-12T23:47:38.087Z,41.65
2023-02-12T23:49:43.119Z,46.28
2023-02-12T23:51:49.783Z,44.17
2023-02-12T23:53:54.928Z,46.90
2023-02-12T23:56:00.472Z,44.88
2023-02-12T23:58:05.646Z,44.60
